createdAt,value
2023-12-30T00:00:44.870Z,94.67
2023-12-30T00:03:12.853Z,95.80
2023-12-30T00:05:40.857Z,99.60
2023-12-30T00:08:10.254Z,97.27
2023-12-30T00:10:38.193Z,95.30
2023-12-30T00:13:06.546Z,95.80
2023-12-30T00:15:34.592Z,95.03
2023-12-30T00:18:02.717Z,100.77
2023-12-30T00:20:30.861Z,100.37
2023-12-30T00:22:59.023Z,94.60
2023-12-30T00:25:28.754Z,97.93
2023-12-30T00:27:57.091Z,99.13
2023-12-30T00:30:25.317Z,97.10
2023-12-30T00:32:53.416Z,97.40
2023-12-30T00:35:22.645Z,101.97
2023-12-30T00:37:50.674Z,95.27
2023-12-30T00:40:26.365Z,92.90
2023-12-30T00:42:56.826Z,92.53
2023-12-30T00:45:24.929Z,92.70
2023-12-30T00:47:53.447Z,91.40
2023-12-30T00:50:21.538Z,90.77
2023-12-30T00:52:49.524Z,91.63
2023-12-30T00:55:17.934Z,93.33
2023-12-30T00:57:45.917Z,92.87
2023-12-30T01:00:16.615Z,95.40
2023-12-30T01:02:44.750Z,95.80
2023-12-30T01:05:13.044Z,91.53
2023-12-30T01:07:41.061Z,93.07
2023-12-30T01:10:09.935Z,92.30
2023-12-30T01:12:38.183Z,95.87
2023-12-30T01:15:07.205Z,95.63
2023-12-30T01:17:36.621Z,95.47
2023-12-30T01:20:07.274Z,97.03
2023-12-30T01:22:36.273Z,95.03
2023-12-30T01:25:04.550Z,93.60
2023-12-30T01:27:32.581Z,93.67
2023-12-30T01:30:00.577Z,93.90
2023-12-30T01:32:28.959Z,98.17
2023-12-30T01:34:58.412Z,96.47
2023-12-30T01:37:26.424Z,97.90
2023-12-30T01:39:54.453Z,95.50
2023-12-30T01:42:22.431Z,96.30
2023-12-30T01:44:50.433Z,98.70
2023-12-30T01:47:18.791Z,96.57
2023-12-30T01:49:47.371Z,99.67
2023-12-30T01:52:16.989Z,98.77
2023-12-30T01:54:45.613Z,98.33
2023-12-30T01:57:14.110Z,97.73
2023-12-30T01:59:42.480Z,98.10
2023-12-30T02:02:10.600Z,96.63
2023-12-30T02:04:40.126Z,90.57
2023-12-30T02:07:08.429Z,92.73
2023-12-30T02:09:38.207Z,94.30
2023-12-30T02:12:07.105Z,94.03
2023-12-30T02:14:35.360Z,95.37
2023-12-30T02:17:03.380Z,93.20
2023-12-30T02:19:31.489Z,96.30
2023-12-30T02:21:59.556Z,94.77
2023-12-30T02:24:28.908Z,94.37
2023-12-30T02:26:55.897Z,94.27
2023-12-30T02:29:23.919Z,94.93
2023-12-30T02:31:53.018Z,91.33
2023-12-30T02:34:21.544Z,89.97
2023-12-30T02:36:50.164Z,89.17
2023-12-30T02:39:18.197Z,86.00
2023-12-30T02:41:47.505Z,85.70
2023-12-30T02:44:20.100Z,86.77
2023-12-30T02:46:48.394Z,88.33
2023-12-30T02:49:16.928Z,87.00
2023-12-30T02:51:45.033Z,89.10
2023-12-30T02:54:13.093Z,89.13
2023-12-30T02:56:41.052Z,84.53
2023-12-30T02:59:10.493Z,88.93
2023-12-30T03:01:39.477Z,90.60
2023-12-30T03:04:08.076Z,93.20
2023-12-30T03:06:36.752Z,94.53
2023-12-30T03:09:05.631Z,93.33
2023-12-30T03:11:33.794Z,96.20
2023-12-30T03:14:01.975Z,96.90
2023-12-30T03:16:31.631Z,99.30
2023-12-30T03:18:59.927Z,98.20
2023-12-30T03:21:27.961Z,101.03
2023-12-30T03:23:56.040Z,100.00
2023-12-30T03:26:24.199Z,100.87
2023-12-30T03:28:52.209Z,100.73
2023-12-30T03:31:24.792Z,103.10
2023-12-30T03:33:54.399Z,100.40
2023-12-30T03:36:22.536Z,104.60
2023-12-30T03:38:51.222Z,102.90
2023-12-30T03:41:19.442Z,102.67
2023-12-30T03:43:47.588Z,103.33
2023-12-30T03:46:15.748Z,105.27
2023-12-30T03:48:44.000Z,105.00
2023-12-30T03:51:13.457Z,106.13
2023-12-30T03:53:42.217Z,106.03
2023-12-30T03:56:10.216Z,110.27
2023-12-30T03:58:38.409Z,105.10
2023-12-30T04:01:07.164Z,107.00
2023-12-30T04:03:35.279Z,107.20
2023-12-30T04:06:03.403Z,106.67
2023-12-30T04:08:32.829Z,101.40
2023-12-30T04:11:00.775Z,104.37
2023-12-30T04:13:28.787Z,105.73
2023-12-30T04:15:56.854Z,106.43
2023-12-30T04:18:24.915Z,104.43
2023-12-30T04:20:52.920Z,106.73
2023-12-30T04:23:20.875Z,107.97
2023-12-30T04:25:50.297Z,111.07
2023-12-30T04:28:18.302Z,111.27
2023-12-30T04:30:46.382Z,111.97
2023-12-30T04:33:14.899Z,111.17
2023-12-30T04:35:43.270Z,111.03
2023-12-30T04:38:11.336Z,106.90
2023-12-30T04:40:39.505Z,106.43
2023-12-30T04:43:08.016Z,104.07
2023-12-30T04:45:36.003Z,111.23
2023-12-30T04:48:04.250Z,105.10
2023-12-30T04:50:32.223Z,108.00
2023-12-30T04:53:00.482Z,106.70
2023-12-30T04:55:28.904Z,110.00
2023-12-30T04:57:57.118Z,105.10
2023-12-30T05:00:26.587Z,108.53
2023-12-30T05:02:54.633Z,107.47
2023-12-30T05:05:22.714Z,109.93
2023-12-30T05:07:50.732Z,109.97
2023-12-30T05:10:18.819Z,111.90
2023-12-30T05:12:46.892Z,109.53
2023-12-30T05:15:15.438Z,103.83
2023-12-30T05:17:44.964Z,109.03
2023-12-30T05:20:17.684Z,108.20
2023-12-30T05:22:45.741Z,102.80
2023-12-30T05:25:13.847Z,101.57
2023-12-30T05:27:41.977Z,100.50
2023-12-30T05:30:10.897Z,107.27
2023-12-30T05:32:39.191Z,101.60
2023-12-30T05:35:09.930Z,103.90
2023-12-30T05:37:38.000Z,97.53
2023-12-30T05:40:08.325Z,93.27
2023-12-30T05:42:36.372Z,93.53
2023-12-30T05:45:04.899Z,94.90
2023-12-30T05:47:32.931Z,93.07
2023-12-30T05:50:01.028Z,93.23
2023-12-30T05:52:30.389Z,90.80
2023-12-30T05:54:58.459Z,97.40
2023-12-30T05:57:26.463Z,91.40
2023-12-30T05:59:54.519Z,95.67
2023-12-30T06:02:23.207Z,96.00
2023-12-30T06:04:51.307Z,91.43
2023-12-30T06:07:19.405Z,96.17
2023-12-30T06:09:48.870Z,90.03
2023-12-30T06:12:16.899Z,93.67
2023-12-30T06:14:44.895Z,91.70
2023-12-30T06:17:12.854Z,91.10
2023-12-30T06:19:40.863Z,92.87
2023-12-30T06:22:08.963Z,90.20
2023-12-30T06:24:37.035Z,93.33
2023-12-30T06:27:06.747Z,92.33
2023-12-30T06:29:34.780Z,94.50
2023-12-30T06:32:02.760Z,95.67
2023-12-30T06:34:32.221Z,96.93
2023-12-30T06:37:00.247Z,92.50
2023-12-30T06:39:28.340Z,90.23
2023-12-30T06:42:01.385Z,88.97
2023-12-30T06:44:31.422Z,89.37
2023-12-30T06:46:59.629Z,92.87
2023-12-30T06:49:27.829Z,91.90
2023-12-30T06:51:55.973Z,93.63
2023-12-30T06:54:24.156Z,89.80
2023-12-30T06:56:54.477Z,93.90
2023-12-30T06:59:22.698Z,93.73
2023-12-30T07:01:52.127Z,96.30
2023-12-30T07:04:20.232Z,92.13
2023-12-30T07:06:48.585Z,93.87
2023-12-30T07:09:17.227Z,93.60
2023-12-30T07:11:45.300Z,92.60
2023-12-30T07:14:13.575Z,96.97
2023-12-30T07:16:41.577Z,90.67
2023-12-30T07:19:11.290Z,92.10
2023-12-30T07:21:39.430Z,95.93
2023-12-30T07:24:08.107Z,93.17
2023-12-30T07:26:36.105Z,95.80
2023-12-30T07:29:04.267Z,97.13
2023-12-30T07:31:32.358Z,93.90
2023-12-30T07:34:00.963Z,97.87
2023-12-30T07:36:30.462Z,99.13
2023-12-30T07:38:58.566Z,95.20
2023-12-30T07:41:26.664Z,96.43
2023-12-30T07:43:54.809Z,97.07
2023-12-30T07:46:25.052Z,95.03
2023-12-30T07:48:53.480Z,95.70
2023-12-30T07:51:21.603Z,99.90
2023-12-30T07:53:50.988Z,114.13
2023-12-30T07:56:18.983Z,119.40
2023-12-30T07:58:47.036Z,120.37
2023-12-30T08:01:15.289Z,114.43
2023-12-30T08:03:43.453Z,117.70
2023-12-30T08:06:11.463Z,118.30
2023-12-30T08:08:39.474Z,118.00
2023-12-30T08:11:09.277Z,114.83
2023-12-30T08:13:37.371Z,113.90
2023-12-30T08:16:05.854Z,111.67
2023-12-30T08:18:33.948Z,112.23
2023-12-30T08:21:02.412Z,107.60
2023-12-30T08:23:30.418Z,107.87
2023-12-30T08:25:58.411Z,104.13
2023-12-30T08:28:27.796Z,106.40
2023-12-30T08:30:58.207Z,111.60
2023-12-30T08:33:26.399Z,112.87
2023-12-30T08:35:54.487Z,112.23
2023-12-30T08:38:22.499Z,113.17
2023-12-30T08:40:50.530Z,113.17
2023-12-30T08:43:18.744Z,115.97
2023-12-30T08:45:48.287Z,110.33
2023-12-30T08:48:16.478Z,111.20
2023-12-30T08:50:46.020Z,114.77
2023-12-30T08:53:19.585Z,110.87
2023-12-30T08:55:47.679Z,111.83
2023-12-30T08:58:15.760Z,108.77
2023-12-30T09:00:44.044Z,108.00
2023-12-30T09:03:13.389Z,109.60
2023-12-30T09:05:42.441Z,108.83
2023-12-30T09:08:10.454Z,107.50
2023-12-30T09:10:38.571Z,111.27
2023-12-30T09:13:07.016Z,109.30
2023-12-30T09:15:36.220Z,109.40
2023-12-30T09:18:04.838Z,108.33
2023-12-30T09:20:34.244Z,108.70
2023-12-30T09:23:02.518Z,109.50
2023-12-30T09:25:29.887Z,111.37
2023-12-30T09:27:58.024Z,110.97
2023-12-30T09:30:26.108Z,111.97
2023-12-30T09:32:54.678Z,109.97
2023-12-30T09:35:22.924Z,107.43
2023-12-30T09:37:52.309Z,110.90
2023-12-30T09:40:20.617Z,109.73
2023-12-30T09:42:50.790Z,107.67
2023-12-30T09:45:26.682Z,104.83
2023-12-30T09:47:55.757Z,101.00
2023-12-30T09:50:23.795Z,100.03
2023-12-30T09:55:21.540Z,100.23
2023-12-30T09:57:49.750Z,103.67
2023-12-30T10:00:21.074Z,99.27
2023-12-30T10:02:49.974Z,95.77
2023-12-30T10:05:18.461Z,95.73
2023-12-30T10:07:46.841Z,96.67
2023-12-30T10:10:18.492Z,96.87
2023-12-30T10:12:47.276Z,89.67
2023-12-30T10:15:15.628Z,90.80
2023-12-30T10:17:42.808Z,92.00
2023-12-30T10:20:12.004Z,89.77
2023-12-30T10:22:40.492Z,88.53
2023-12-30T10:25:10.306Z,83.37
2023-12-30T10:27:40.718Z,82.53
2023-12-30T10:30:10.311Z,77.80
2023-12-30T10:32:38.484Z,76.53
2023-12-30T10:35:07.454Z,75.43
2023-12-30T10:37:36.338Z,75.13
2023-12-30T10:40:07.747Z,72.07
2023-12-30T10:42:35.800Z,73.53
2023-12-30T10:45:05.688Z,71.97
2023-12-30T10:47:36.422Z,69.60
2023-12-30T10:50:08.818Z,69.87
2023-12-30T10:52:39.864Z,70.57
2023-12-30T10:55:11.662Z,71.60
2023-12-30T10:57:42.645Z,70.27
2023-12-30T11:00:16.037Z,68.40
2023-12-30T11:02:45.265Z,68.90
2023-12-30T11:05:21.745Z,69.47
2023-12-30T11:07:50.324Z,74.70
2023-12-30T11:10:19.686Z,74.70
2023-12-30T11:12:47.824Z,79.50
2023-12-30T11:15:28.660Z,79.83
2023-12-30T11:17:57.891Z,82.27
2023-12-30T11:20:31.459Z,83.30
2023-12-30T11:23:01.337Z,80.20
2023-12-30T11:25:40.274Z,78.57
2023-12-30T11:28:19.802Z,75.63
2023-12-30T11:30:58.542Z,74.10
2023-12-30T11:33:26.827Z,75.90
2023-12-30T11:35:57.038Z,78.13
2023-12-30T11:38:26.670Z,81.60
2023-12-30T11:40:56.767Z,74.77
2023-12-30T11:43:26.598Z,72.27
2023-12-30T11:45:56.929Z,79.00
2023-12-30T11:48:25.891Z,75.73
2023-12-30T11:50:55.238Z,74.33
2023-12-30T11:53:23.743Z,65.90
2023-12-30T11:55:51.794Z,58.77
2023-12-30T11:58:19.919Z,55.73
2023-12-30T12:00:48.258Z,50.40
2023-12-30T12:03:17.786Z,49.93
2023-12-30T12:05:45.808Z,51.93
2023-12-30T12:08:14.656Z,51.53
2023-12-30T12:10:43.488Z,55.03
2023-12-30T12:13:13.456Z,52.10
2023-12-30T12:15:44.681Z,54.70
2023-12-30T12:18:13.584Z,48.67
2023-12-30T12:20:44.714Z,47.10
2023-12-30T12:23:13.868Z,50.00
2023-12-30T12:25:44.649Z,52.53
2023-12-30T12:28:15.441Z,50.43
2023-12-30T12:30:44.436Z,47.83
2023-12-30T12:33:14.930Z,44.70
2023-12-30T12:35:45.646Z,43.40
2023-12-30T12:38:14.809Z,45.93
2023-12-30T12:40:42.997Z,44.10
2023-12-30T12:43:11.024Z,46.47
2023-12-30T12:45:39.826Z,45.13
2023-12-30T12:48:09.192Z,41.70
2023-12-30T12:50:37.854Z,42.27
2023-12-30T12:53:07.288Z,40.93
2023-12-30T12:55:35.387Z,40.67
2023-12-30T12:58:03.642Z,41.80
2023-12-30T13:00:33.055Z,39.00
2023-12-30T13:03:02.362Z,39.80
2023-12-30T13:05:30.988Z,38.30
2023-12-30T13:07:59.004Z,38.97
2023-12-30T13:10:41.428Z,41.23
2023-12-30T13:13:09.992Z,39.30
2023-12-30T13:15:39.473Z,40.50
2023-12-30T13:18:12.899Z,37.43
2023-12-30T13:20:44.579Z,34.43
2023-12-30T13:23:15.027Z,33.97
2023-12-30T13:25:45.407Z,35.20
2023-12-30T13:28:15.261Z,35.67
2023-12-30T13:30:44.745Z,35.00
2023-12-30T13:33:17.515Z,31.53
2023-12-30T13:35:45.948Z,31.50
2023-12-30T13:38:14.728Z,30.83
2023-12-30T13:40:45.648Z,29.70
2023-12-30T13:43:14.326Z,29.83
2023-12-30T13:45:46.685Z,29.07
2023-12-30T13:48:52.927Z,29.00
2023-12-30T13:51:21.295Z,28.37
2023-12-30T13:53:49.563Z,28.53
2023-12-30T13:56:22.389Z,26.90
2023-12-30T13:58:51.596Z,27.77
2023-12-30T14:01:23.325Z,26.67
2023-12-30T14:03:52.923Z,25.73
2023-12-30T14:06:24.028Z,25.30
2023-12-30T14:08:52.918Z,25.30
2023-12-30T14:11:32.999Z,24.93
2023-12-30T14:14:04.482Z,26.17
2023-12-30T14:16:33.283Z,26.80
2023-12-30T14:19:01.852Z,27.87
2023-12-30T14:21:31.589Z,27.43
2023-12-30T14:23:59.900Z,28.03
2023-12-30T14:26:30.287Z,28.87
2023-12-30T14:28:58.394Z,28.67
2023-12-30T14:31:26.531Z,29.40
2023-12-30T14:33:59.178Z,29.53
2023-12-30T14:36:27.307Z,31.37
2023-12-30T14:38:55.390Z,31.53
2023-12-30T14:41:23.416Z,30.97
2023-12-30T14:43:53.236Z,30.63
2023-12-30T14:46:21.847Z,31.33
2023-12-30T14:48:50.015Z,33.23
2023-12-30T14:51:18.437Z,33.47
2023-12-30T14:53:46.862Z,32.73
2023-12-30T14:56:15.980Z,33.37
2023-12-30T14:58:44.741Z,35.20
2023-12-30T15:01:14.133Z,35.03
2023-12-30T15:03:47.017Z,34.83
2023-12-30T15:06:15.578Z,36.40
2023-12-30T15:08:43.745Z,36.90
2023-12-30T15:11:11.732Z,35.60
2023-12-30T15:13:39.840Z,35.93
2023-12-30T15:16:09.018Z,36.10
2023-12-30T15:18:38.500Z,36.00
2023-12-30T15:21:07.405Z,36.40
2023-12-30T15:23:35.381Z,36.27
2023-12-30T15:26:03.660Z,36.20
2023-12-30T15:28:31.637Z,36.33
2023-12-30T15:30:59.799Z,36.33
2023-12-30T15:33:28.306Z,37.03
2023-12-30T15:35:58.670Z,38.07
2023-12-30T15:38:26.664Z,38.60
2023-12-30T15:40:54.895Z,38.47
2023-12-30T15:43:22.870Z,37.20
2023-12-30T15:45:51.001Z,38.13
2023-12-30T15:48:19.062Z,40.63
2023-12-30T15:50:47.333Z,38.77
2023-12-30T15:53:17.968Z,36.67
2023-12-30T15:55:46.150Z,36.70
2023-12-30T15:58:14.202Z,38.30
2023-12-30T16:00:42.211Z,37.30
2023-12-30T16:03:12.839Z,37.23
2023-12-30T16:05:42.525Z,37.10
2023-12-30T16:08:11.292Z,36.80
2023-12-30T16:10:43.187Z,35.77
2023-12-30T16:13:12.462Z,37.40
2023-12-30T16:15:41.104Z,38.67
2023-12-30T16:18:09.843Z,36.37
2023-12-30T16:20:38.668Z,36.30
2023-12-30T16:23:08.383Z,36.53
2023-12-30T16:25:37.751Z,36.17
2023-12-30T16:28:07.988Z,34.77
2023-12-30T16:30:36.319Z,34.67
2023-12-30T16:33:05.519Z,35.57
2023-12-30T16:35:34.457Z,35.40
2023-12-30T16:38:02.698Z,36.23
2023-12-30T16:40:31.961Z,36.07
2023-12-30T16:43:00.682Z,35.90
2023-12-30T16:45:30.097Z,34.97
2023-12-30T16:47:58.124Z,35.20
2023-12-30T16:50:26.156Z,34.07
2023-12-30T16:52:54.117Z,34.10
2023-12-30T16:55:22.581Z,34.10
2023-12-30T16:57:50.605Z,32.23
2023-12-30T17:00:19.109Z,32.87
2023-12-30T17:02:48.464Z,32.90
2023-12-30T17:05:16.598Z,33.03
2023-12-30T17:07:44.566Z,32.70
2023-12-30T17:10:12.793Z,32.97
2023-12-30T17:12:40.721Z,35.23
2023-12-30T17:15:09.587Z,35.00
2023-12-30T17:17:37.561Z,34.10
2023-12-30T17:20:08.189Z,36.43
2023-12-30T17:22:36.435Z,36.17
2023-12-30T17:25:04.524Z,35.70
2023-12-30T17:27:32.480Z,38.80
2023-12-30T17:30:00.481Z,37.63
2023-12-30T17:32:30.658Z,36.53
2023-12-30T17:34:58.688Z,36.00
2023-12-30T17:37:28.073Z,35.00
2023-12-30T17:39:56.026Z,36.10
2023-12-30T17:42:23.952Z,35.57
2023-12-30T17:44:52.211Z,33.10
2023-12-30T17:47:20.560Z,32.00
2023-12-30T17:49:48.652Z,32.80
2023-12-30T17:52:16.857Z,32.13
2023-12-30T17:54:46.130Z,30.33
2023-12-30T17:57:14.116Z,32.17
2023-12-30T17:59:42.089Z,32.00
2023-12-30T18:02:10.075Z,32.63
2023-12-30T18:04:38.094Z,31.80
2023-12-30T18:07:06.193Z,31.63
2023-12-30T18:09:34.735Z,32.70
2023-12-30T18:12:04.402Z,32.27
2023-12-30T18:14:33.054Z,33.73
2023-12-30T18:17:01.329Z,32.87
2023-12-30T18:19:29.453Z,34.10
2023-12-30T18:21:59.900Z,33.67
2023-12-30T18:24:27.927Z,32.13
2023-12-30T18:26:56.110Z,35.10
2023-12-30T18:29:25.720Z,33.63
2023-12-30T18:31:53.818Z,34.80
2023-12-30T18:34:22.005Z,34.90
2023-12-30T18:36:50.848Z,35.20
2023-12-30T18:39:18.825Z,34.57
2023-12-30T18:41:46.962Z,36.17
2023-12-30T18:44:15.436Z,36.57
2023-12-30T18:46:45.175Z,34.70
2023-12-30T18:49:13.713Z,36.30
2023-12-30T18:51:41.774Z,36.27
2023-12-30T18:54:09.825Z,37.70
2023-12-30T18:56:40.249Z,35.50
2023-12-30T18:59:08.307Z,35.20
2023-12-30T19:01:38.627Z,35.97
2023-12-30T19:04:08.727Z,35.97
2023-12-30T19:06:36.875Z,37.30
2023-12-30T19:09:05.560Z,36.67
2023-12-30T19:11:33.576Z,37.00
2023-12-30T19:14:01.646Z,36.90
2023-12-30T19:16:29.733Z,38.63
2023-12-30T19:18:57.912Z,39.70
2023-12-30T19:21:27.305Z,40.60
2023-12-30T19:23:55.396Z,39.57
2023-12-30T19:26:23.455Z,39.90
2023-12-30T19:28:51.588Z,41.43
2023-12-30T19:31:19.736Z,41.53
2023-12-30T19:33:47.805Z,41.80
2023-12-30T19:36:16.648Z,42.37
2023-12-30T19:38:46.490Z,41.27
2023-12-30T19:41:14.967Z,43.00
2023-12-30T19:43:43.064Z,41.90
2023-12-30T19:46:11.282Z,40.17
2023-12-30T19:48:39.590Z,43.47
2023-12-30T19:51:07.737Z,45.30
2023-12-30T19:53:35.819Z,45.43
2023-12-30T19:56:05.781Z,44.37
2023-12-30T19:58:33.822Z,43.30
2023-12-30T20:01:02.319Z,44.80
2023-12-30T20:03:30.547Z,46.30
2023-12-30T20:05:58.594Z,44.50
2023-12-30T20:08:26.619Z,46.60
2023-12-30T20:10:54.653Z,45.80
2023-12-30T20:13:24.078Z,46.27
2023-12-30T20:15:52.107Z,46.60
2023-12-30T20:18:20.229Z,48.50
2023-12-30T20:20:48.303Z,52.63
2023-12-30T20:23:17.814Z,50.87
2023-12-30T20:25:45.938Z,49.50
2023-12-30T20:28:14.468Z,50.80
2023-12-30T20:30:44.320Z,49.33
2023-12-30T20:33:14.610Z,48.67
2023-12-30T20:35:42.814Z,49.07
2023-12-30T20:38:10.777Z,48.07
2023-12-30T20:40:38.856Z,50.30
2023-12-30T20:43:07.077Z,50.77
2023-12-30T20:45:35.167Z,51.40
2023-12-30T20:48:06.074Z,51.13
2023-12-30T20:50:37.918Z,51.47
2023-12-30T20:53:06.713Z,50.30
2023-12-30T20:55:34.846Z,53.10
2023-12-30T20:58:02.959Z,51.93
2023-12-30T21:00:31.185Z,53.50
2023-12-30T21:02:59.194Z,53.07
2023-12-30T21:05:28.574Z,53.23
2023-12-30T21:07:56.667Z,55.17
2023-12-30T21:10:24.871Z,55.87
2023-12-30T21:12:52.928Z,57.03
2023-12-30T21:15:20.943Z,58.03
2023-12-30T21:17:49.030Z,56.23
2023-12-30T21:20:17.292Z,58.90
2023-12-30T21:22:46.813Z,59.03
2023-12-30T21:25:22.805Z,59.03
2023-12-30T21:27:54.689Z,58.97
2023-12-30T21:30:24.037Z,60.13
2023-12-30T21:32:53.345Z,58.27
2023-12-30T21:35:21.457Z,61.33
2023-12-30T21:37:51.812Z,58.73
2023-12-30T21:40:21.174Z,56.83
2023-12-30T21:42:49.210Z,57.63
2023-12-30T21:45:18.334Z,57.77
2023-12-30T21:47:46.657Z,56.30
2023-12-30T21:50:15.047Z,60.10
2023-12-30T21:52:44.495Z,57.50
2023-12-30T21:55:14.060Z,55.30
2023-12-30T21:57:42.137Z,54.17
2023-12-30T22:00:12.061Z,53.70
2023-12-30T22:02:40.405Z,53.77
2023-12-30T22:05:10.383Z,54.83
2023-12-30T22:07:38.504Z,54.60
2023-12-30T22:10:07.929Z,55.00
2023-12-30T22:12:37.334Z,51.97
2023-12-30T22:15:07.140Z,55.00
2023-12-30T22:17:35.609Z,51.97
2023-12-30T22:20:05.983Z,51.33
2023-12-30T22:22:34.381Z,51.40
2023-12-30T22:25:05.124Z,51.27
2023-12-30T22:27:33.128Z,48.70
2023-12-30T22:30:03.177Z,48.40
2023-12-30T22:32:31.757Z,47.30
2023-12-30T22:35:00.793Z,48.73
2023-12-30T22:37:28.859Z,46.67
2023-12-30T22:39:56.926Z,48.40
2023-12-30T22:42:25.049Z,49.13
2023-12-30T22:44:53.104Z,47.50
2023-12-30T22:47:22.444Z,46.17
2023-12-30T22:49:50.800Z,49.73
2023-12-30T22:52:19.222Z,50.30
2023-12-30T22:54:47.544Z,52.50
2023-12-30T22:57:15.908Z,51.93
2023-12-30T22:59:44.028Z,52.20
2023-12-30T23:02:12.046Z,52.47
2023-12-30T23:04:41.391Z,51.87
2023-12-30T23:07:09.429Z,52.23
2023-12-30T23:09:38.009Z,53.37
2023-12-30T23:12:06.472Z,53.00
2023-12-30T23:14:34.558Z,52.80
2023-12-30T23:17:02.544Z,54.23
2023-12-30T23:19:30.553Z,54.67
2023-12-30T23:21:59.963Z,57.47
2023-12-30T23:24:28.526Z,57.07
2023-12-30T23:26:56.572Z,56.83
2023-12-30T23:29:26.144Z,56.00
2023-12-30T23:31:55.194Z,56.37
2023-12-30T23:34:24.930Z,54.43
2023-12-30T23:36:56.228Z,57.17
2023-12-30T23:39:26.213Z,57.23
2023-12-30T23:41:54.175Z,58.33
2023-12-30T23:44:22.200Z,58.70
2023-12-30T23:46:50.359Z,59.17
2023-12-30T23:49:18.741Z,58.87
2023-12-30T23:51:46.759Z,61.83
2023-12-30T23:54:14.924Z,61.00
2023-12-30T23:56:44.889Z,60.00
2023-12-30T23:59:14.734Z,59.40
